Alburgh, New York
Current Conditions -  °F | °C
As of 1:53 PM on Friday 24 Oct 2014 (Local Time) from KMSS Reporting Station
Overcast Overcast  
Wind Chill: 57°   Ceiling: 4200
Heat Index: 57°   Visibility: 10mi
Dew Point: 43°   Wind: 0mph
Humidity: 59%   Direction: NA
Pressure: 29.88"   Gusts: NA
Location:  44.8293°N, 74.5271°W
Report Text: KMSS 241753Z AUTO 00000KT 10SM OVC042 14/06 A2988 RMK AO2 SLP119 6//// T01390061 10139 20078
Loading
Personal Weather Stations






























Interactive Weather Map
Tropical Storm Tracking
New forecast layout! Learn more

10-Day Weather Forecast

Advertisements
Track Severe Weather on mobile